Time;durP1;ratioP1;P1;durP2;ratioP2;P2;SDS_P1;SDS_P2;PMS_P1;PMS_P2;Temp;Humidity;BMP_temperature;BMP_pressure;BME280_temperature;BME280_humidity;BME280_pressure;Samples;Min_cycle;Max_cycle;Signal;HPM_P1;HPM_P2
2023/10/07 00:01:11;;;;;;;4.38;3.72;;;8.90;99.90;;;;;;4979935;28;20029;-41
2023/10/07 00:03:38;;;;;;;4.28;3.65;;;8.90;99.90;;;;;;4983520;28;20030;-34
2023/10/07 00:06:09;;;;;;;7.20;4.55;;;8.90;99.90;;;;;;4984044;28;20034;-37
2023/10/07 00:08:35;;;;;;;6.55;4.93;;;9.00;99.90;;;;;;4980064;28;20038;-38
2023/10/07 00:11:01;;;;;;;6.75;4.47;;;8.90;99.90;;;;;;4981220;28;20058;-30
2023/10/07 00:13:30;;;;;;;6.72;5.25;;;8.90;99.90;;;;;;4985703;28;20045;-33
2023/10/07 00:15:56;;;;;;;6.03;4.25;;;8.90;99.90;;;;;;4989511;28;20026;-30
2023/10/07 00:18:25;;;;;;;6.68;5.05;;;8.90;99.90;;;;;;4986748;28;20088;-32
2023/10/07 00:20:53;;;;;;;;;;;8.80;99.90;;;;;;4986023;28;20041;-32
2023/10/07 00:23:21;;;;;;;6.90;4.35;;;8.80;99.90;;;;;;4989025;28;20307;-31
2023/10/07 00:25:51;;;;;;;5.32;4.80;;;8.70;99.90;;;;;;4982185;28;20045;-33
2023/10/07 00:28:18;;;;;;;7.22;4.85;;;8.70;99.90;;;;;;4983869;28;20038;-34
2023/10/07 00:30:45;;;;;;;7.85;4.70;;;8.70;99.90;;;;;;4985930;28;20506;-40
2023/10/07 00:33:14;;;;;;;7.03;4.68;;;8.70;99.90;;;;;;4988828;28;20688;-30
2023/10/07 00:35:49;;;;;;;7.00;4.50;;;8.60;99.90;;;;;;4989776;28;20087;-36
2023/10/07 00:38:15;;;;;;;7.78;5.13;;;8.70;99.90;;;;;;4987535;28;20042;-31
2023/10/07 00:40:54;;;;;;;7.18;5.10;;;8.70;99.90;;;;;;4987142;28;20026;-36
2023/10/07 00:43:26;;;;;;;6.45;4.65;;;8.70;99.90;;;;;;4993192;28;20174;-32
2023/10/07 00:45:59;;;;;;;7.13;5.28;;;8.70;99.90;;;;;;4985091;28;20487;-33
2023/10/07 00:48:38;;;;;;;6.50;4.75;;;8.70;99.90;;;;;;4987512;28;20069;-30
2023/10/07 00:51:11;;;;;;;7.25;4.95;;;8.70;99.90;;;;;;4982313;28;20040;-32
2023/10/07 00:53:45;;;;;;;15.05;5.18;;;8.60;99.90;;;;;;4986951;28;20038;-30
2023/10/07 00:56:13;;;;;;;5.50;4.38;;;8.60;99.90;;;;;;4985407;28;20114;-31
2023/10/07 00:58:41;;;;;;;3.92;3.47;;;8.40;99.90;;;;;;4987697;28;20034;-34
2023/10/07 01:01:09;;;;;;;3.90;3.58;;;8.30;99.90;;;;;;4988067;28;20041;-30
2023/10/07 01:03:47;;;;;;;4.07;3.30;;;8.20;99.90;;;;;;4985719;28;20070;-32
2023/10/07 01:06:25;;;;;;;;;;;8.10;99.90;;;;;;4987219;28;20030;-31
2023/10/07 01:09:22;;;;;;;8.13;3.22;;;8.20;99.90;;;;;;4985811;28;20557;-39
2023/10/07 01:11:57;;;;;;;3.20;2.90;;;8.00;99.90;;;;;;4986005;28;20048;-30
2023/10/07 01:14:27;;;;;;;3.05;2.75;;;7.90;99.90;;;;;;4985937;28;20023;-30
2023/10/07 01:16:53;;;;;;;5.13;3.40;;;7.90;99.90;;;;;;4987223;28;20042;-30
2023/10/07 01:19:27;;;;;;;5.47;3.38;;;7.80;99.90;;;;;;4985867;28;20045;-31
2023/10/07 01:22:18;;;;;;;5.15;3.10;;;7.70;99.90;;;;;;4984985;28;20177;-30
2023/10/07 01:27:29;;;;;;;5.30;3.47;;;7.60;99.90;;;;;;4982784;28;20042;-30
2023/10/07 01:30:00;;;;;;;3.83;3.22;;;7.60;99.90;;;;;;4986493;28;20571;-30
2023/10/07 01:32:32;;;;;;;4.10;3.60;;;7.60;99.90;;;;;;4987017;28;20030;-35
2023/10/07 01:35:10;;;;;;;6.20;4.65;;;7.60;99.90;;;;;;4986875;28;20072;-30
2023/10/07 01:37:52;;;;;;;4.93;4.22;;;7.70;99.90;;;;;;4986078;28;20372;-30
2023/10/07 01:40:27;;;;;;;4.72;3.78;;;7.60;99.90;;;;;;4987220;28;20026;-29
2023/10/07 01:42:53;;;;;;;7.53;3.97;;;7.70;99.90;;;;;;4990283;28;20121;-29
2023/10/07 01:45:22;;;;;;;5.45;3.70;;;7.70;99.90;;;;;;4984322;28;20034;-31
2023/10/07 01:47:49;;;;;;;4.57;3.88;;;7.70;99.90;;;;;;4983299;28;20058;-30
2023/10/07 01:50:18;;;;;;;6.78;3.90;;;7.60;99.90;;;;;;4986492;28;20034;-31
2023/10/07 01:52:48;;;;;;;3.85;3.25;;;7.70;99.90;;;;;;4985569;28;20511;-30
2023/10/07 01:55:15;;;;;;;4.60;3.70;;;7.70;99.90;;;;;;4987581;28;20503;-32
2023/10/07 01:57:44;;;;;;;4.50;3.92;;;7.70;99.90;;;;;;4985874;28;20030;-35
2023/10/07 02:00:11;;;;;;;;;;;7.70;99.90;;;;;;4987450;28;20069;-31
2023/10/07 02:02:49;;;;;;;5.22;3.80;;;7.70;99.90;;;;;;4985623;28;20020;-31
2023/10/07 02:05:15;;;;;;;6.90;4.20;;;7.70;99.90;;;;;;4983029;28;20539;-30
2023/10/07 02:07:43;;;;;;;6.30;3.80;;;7.70;99.90;;;;;;4984951;28;20331;-32
2023/10/07 02:10:13;;;;;;;8.23;4.20;;;7.70;99.90;;;;;;4985091;28;20057;-31
2023/10/07 02:12:39;;;;;;;4.75;3.70;;;7.70;99.90;;;;;;4983224;28;20499;-32
2023/10/07 02:15:19;;;;;;;7.75;4.05;;;7.70;99.90;;;;;;4985023;28;20034;-33
2023/10/07 02:17:47;;;;;;;5.40;3.70;;;7.60;99.90;;;;;;4984539;28;20046;-30
2023/10/07 02:20:27;;;;;;;3.72;3.30;;;7.50;99.90;;;;;;4984322;28;20031;-33
2023/10/07 02:22:53;;;;;;;3.45;2.90;;;7.50;99.90;;;;;;4982800;28;20026;-30
2023/10/07 02:25:29;;;;;;;5.68;3.30;;;7.50;99.90;;;;;;4983986;28;20374;-35
2023/10/07 02:27:55;;;;;;;5.28;3.20;;;7.40;99.90;;;;;;4980066;28;20365;-31
2023/10/07 02:30:21;;;;;;;6.80;3.85;;;7.40;99.90;;;;;;4983410;28;20053;-30
2023/10/07 02:32:47;;;;;;;5.05;3.70;;;7.50;99.90;;;;;;4983120;28;20073;-33
2023/10/07 02:35:19;;;;;;;4.07;3.70;;;7.40;99.90;;;;;;4985260;28;20476;-30
2023/10/07 02:37:49;;;;;;;6.95;3.60;;;7.40;99.90;;;;;;4985914;28;20251;-33
2023/10/07 02:40:35;;;;;;;6.47;3.67;;;7.40;99.90;;;;;;4984899;28;20270;-30
2023/10/07 02:43:07;;;;;;;4.25;3.42;;;7.40;99.90;;;;;;4985286;28;20061;-30
2023/10/07 02:45:42;;;;;;;3.85;3.15;;;7.30;99.90;;;;;;4984400;28;20037;-29
2023/10/07 02:48:11;;;;;;;4.82;3.55;;;7.30;99.90;;;;;;4983413;28;20054;-31
2023/10/07 02:50:42;;;;;;;4.60;3.42;;;7.30;99.90;;;;;;4984876;28;20546;-30
2023/10/07 02:53:15;;;;;;;5.28;3.40;;;7.30;99.90;;;;;;4985392;28;20053;-30
2023/10/07 02:55:58;;;;;;;3.85;3.20;;;7.30;99.90;;;;;;4984379;28;20034;-30
2023/10/07 02:58:32;;;;;;;5.32;3.50;;;7.30;99.90;;;;;;4985406;28;20030;-31
2023/10/07 03:01:10;;;;;;;4.50;3.75;;;7.20;99.90;;;;;;4983077;28;20049;-30
2023/10/07 03:03:38;;;;;;;5.32;3.90;;;7.00;99.90;;;;;;4985307;28;20026;-30
2023/10/07 03:06:07;;;;;;;5.05;3.83;;;6.90;99.90;;;;;;4980890;28;20034;-34
2023/10/07 03:11:40;;;;;;;5.20;3.10;;;6.90;99.90;;;;;;4973174;28;19918;-31
2023/10/07 03:14:06;;;;;;;3.27;2.97;;;6.90;99.90;;;;;;4986411;28;20049;-29
2023/10/07 03:16:45;;;;;;;4.00;3.28;;;6.90;99.90;;;;;;4983908;28;20876;-35
2023/10/07 03:19:20;;;;;;;3.90;3.00;;;7.00;99.90;;;;;;4985036;28;20113;-30
2023/10/07 03:22:09;;;;;;;3.38;2.83;;;7.00;99.90;;;;;;4980565;28;20111;-30
2023/10/07 03:24:41;;;;;;;6.35;3.83;;;7.00;99.90;;;;;;4983896;28;20100;-32
2023/10/07 03:27:11;;;;;;;4.43;3.70;;;7.00;99.90;;;;;;4985101;28;20038;-35
2023/10/07 03:29:49;;;;;;;3.60;2.92;;;7.00;99.90;;;;;;4982226;28;20139;-31
2023/10/07 03:32:19;;;;;;;3.08;2.70;;;7.00;99.90;;;;;;4983925;28;20042;-30
2023/10/07 03:34:45;;;;;;;;;;;6.80;99.90;;;;;;4984357;28;20063;-29
2023/10/07 03:42:22;;;;;;;3.05;2.78;;;6.70;99.90;;;;;;4986300;28;20066;-30
2023/10/07 03:44:49;;;;;;;2.95;2.70;;;6.70;99.90;;;;;;4982864;28;20109;-30
2023/10/07 03:47:15;;;;;;;4.00;3.08;;;6.60;99.90;;;;;;4984934;28;20061;-30
2023/10/07 03:49:41;;;;;;;3.42;2.78;;;6.60;99.90;;;;;;4982273;28;20471;-36
2023/10/07 03:52:08;;;;;;;3.00;2.78;;;6.60;99.90;;;;;;4984700;28;20048;-34
2023/10/07 03:54:40;;;;;;;3.53;3.03;;;6.60;99.90;;;;;;4982146;28;20042;-35
2023/10/07 03:57:07;;;;;;;4.07;3.20;;;6.60;99.90;;;;;;4984392;28;20113;-30
2023/10/07 03:59:36;;;;;;;3.97;3.58;;;6.70;99.90;;;;;;4983059;28;20109;-32
2023/10/07 04:02:29;;;;;;;3.45;3.15;;;6.50;99.90;;;;;;4982754;28;20591;-33
2023/10/07 04:05:09;;;;;;;3.28;2.88;;;6.40;99.90;;;;;;4979758;28;20502;-32
2023/10/07 04:07:34;;;;;;;4.53;3.20;;;6.40;99.90;;;;;;4984685;28;20113;-33
2023/10/07 04:10:21;;;;;;;4.13;3.30;;;6.40;99.90;;;;;;4981979;28;20204;-32
2023/10/07 04:12:49;;;;;;;4.57;3.60;;;6.40;99.90;;;;;;4984250;28;20125;-38
2023/10/07 04:15:18;;;;;;;3.90;3.60;;;6.20;99.90;;;;;;4984182;28;20357;-32
2023/10/07 04:17:44;;;;;;;6.93;3.83;;;6.10;99.90;;;;;;4980267;28;20030;-34
2023/10/07 04:20:31;;;;;;;4.18;3.65;;;6.10;99.90;;;;;;4980744;28;20018;-32
2023/10/07 04:23:02;;;;;;;3.92;3.40;;;6.10;99.90;;;;;;4981770;28;20040;-32
2023/10/07 04:25:29;;;;;;;5.60;3.47;;;6.10;99.90;;;;;;4983826;28;20484;-31
2023/10/07 04:27:55;;;;;;;4.43;3.72;;;6.10;99.90;;;;;;4981250;28;20042;-32
2023/10/07 04:30:25;;;;;;;13.25;4.30;;;6.00;99.90;;;;;;4982250;28;20769;-32
2023/10/07 04:32:53;;;;;;;16.50;4.22;;;5.90;99.90;;;;;;4980541;28;20061;-32
2023/10/07 04:35:26;;;;;;;4.00;3.60;;;5.70;99.90;;;;;;4981450;28;20061;-32
2023/10/07 04:38:09;;;;;;;4.38;3.97;;;5.80;99.90;;;;;;4980030;28;20038;-38
2023/10/07 04:41:30;;;;;;;4.43;4.03;;;5.90;99.90;;;;;;4981798;28;20551;-35
2023/10/07 04:43:49;;;;;;;4.10;3.70;;;5.90;99.90;;;;;;4982229;28;20400;-35
2023/10/07 04:46:22;;;;;;;4.35;3.60;;;5.90;99.90;;;;;;4974093;28;20046;-32
2023/10/07 04:48:55;;;;;;;4.78;4.07;;;5.90;99.90;;;;;;4983309;28;20035;-32
2023/10/07 04:54:00;;;;;;;4.88;3.70;;;5.70;99.90;;;;;;4983784;28;20061;-39
2023/10/07 04:56:25;;;;;;;;;;;5.70;99.90;;;;;;4984533;28;20772;-35
2023/10/07 04:58:53;;;;;;;3.47;2.88;;;5.70;99.90;;;;;;4981928;28;19972;-36
2023/10/07 05:01:31;;;;;;;3.40;3.10;;;5.60;99.90;;;;;;4982345;28;20030;-37
2023/10/07 05:04:04;;;;;;;4.57;3.60;;;5.60;99.90;;;;;;4986841;28;20037;-38
2023/10/07 05:06:34;;;;;;;3.92;3.47;;;5.60;99.90;;;;;;4978585;28;20085;-39
2023/10/07 05:09:09;;;;;;;4.40;3.40;;;5.50;99.90;;;;;;4983045;28;20029;-39
2023/10/07 05:11:40;;;;;;;4.53;3.67;;;5.50;99.90;;;;;;4989226;28;20060;-38
2023/10/07 05:14:10;;;;;;;5.22;3.85;;;5.50;99.90;;;;;;4984002;28;20018;-36
2023/10/07 05:16:36;;;;;;;7.13;3.88;;;5.50;99.90;;;;;;4984865;28;20022;-39
2023/10/07 05:19:03;;;;;;;5.68;4.10;;;5.50;99.90;;;;;;4984615;28;20388;-38
2023/10/07 05:21:31;;;;;;;5.47;3.60;;;5.30;99.90;;;;;;4986287;28;20026;-38
2023/10/07 05:24:02;;;;;;;5.37;3.73;;;5.20;99.90;;;;;;4985898;28;20054;-38
2023/10/07 05:26:30;;;;;;;5.32;3.97;;;5.20;99.90;;;;;;4987810;28;20273;-37
2023/10/07 05:29:01;;;;;;;;;;;5.10;99.90;;;;;;4985626;28;20033;-39
2023/10/07 05:31:30;;;;;;;4.50;3.85;;;5.10;99.90;;;;;;4985071;28;19930;-36
2023/10/07 05:33:58;;;;;;;5.45;4.20;;;5.20;99.90;;;;;;4983401;28;20034;-39
2023/10/07 05:36:29;;;;;;;;;;;5.20;99.90;;;;;;4986169;28;20497;-39
2023/10/07 05:38:55;;;;;;;5.28;4.30;;;5.30;99.90;;;;;;4984829;28;20004;-38
2023/10/07 05:41:25;;;;;;;7.03;4.15;;;5.30;99.90;;;;;;4984410;28;20034;-39
2023/10/07 05:43:51;;;;;;;5.20;4.22;;;5.30;99.90;;;;;;4988697;28;20510;-39
2023/10/07 05:46:19;;;;;;;9.68;4.85;;;5.30;99.90;;;;;;4985887;28;20030;-37
2023/10/07 05:48:45;;;;;;;6.03;4.53;;;5.30;99.90;;;;;;4984784;28;20041;-39
2023/10/07 05:51:11;;;;;;;6.38;4.47;;;5.20;99.90;;;;;;4985670;28;20041;-39
2023/10/07 05:53:42;;;;;;;5.75;4.32;;;5.20;99.90;;;;;;4986720;28;20084;-35
2023/10/07 05:56:09;;;;;;;6.60;4.35;;;5.10;99.90;;;;;;4984056;28;20045;-38
2023/10/07 05:58:38;;;;;;;20.33;4.68;;;5.00;99.90;;;;;;4983876;28;20031;-37
2023/10/07 06:01:05;;;;;;;5.38;3.05;;;4.90;99.90;;;;;;4981040;28;20041;-40
2023/10/07 06:03:32;;;;;;;4.78;4.05;;;4.80;99.90;;;;;;4983668;28;20030;-40
2023/10/07 06:05:59;;;;;;;8.13;4.75;;;4.80;99.90;;;;;;4982551;28;20035;-41
2023/10/07 06:08:28;;;;;;;6.07;4.63;;;4.80;99.90;;;;;;4986821;28;20030;-41
2023/10/07 06:10:56;;;;;;;7.25;4.80;;;4.80;99.90;;;;;;4985096;28;20455;-40
2023/10/07 06:13:22;;;;;;;6.75;5.10;;;4.80;99.90;;;;;;4981625;28;20384;-37
2023/10/07 06:15:49;;;;;;;6.88;4.97;;;4.90;99.90;;;;;;4983734;28;20157;-40
2023/10/07 06:18:18;;;;;;;6.68;5.28;;;5.00;99.90;;;;;;4983289;28;20064;-40
2023/10/07 06:20:50;;;;;;;10.95;5.28;;;5.20;99.90;;;;;;4979879;28;20030;-40
2023/10/07 06:23:16;;;;;;;8.63;5.95;;;5.20;99.90;;;;;;4985193;28;20042;-42
2023/10/07 06:25:49;;;;;;;10.45;5.60;;;5.40;99.90;;;;;;4985250;28;20033;-40
2023/10/07 06:28:29;;;;;;;8.50;6.10;;;5.50;99.90;;;;;;4988161;28;20089;-38
2023/10/07 06:31:11;;;;;;;12.00;6.53;;;5.60;99.90;;;;;;4977794;28;20085;-40
2023/10/07 06:33:41;;;;;;;7.95;5.93;;;5.80;99.90;;;;;;4981394;28;20030;-39
2023/10/07 06:36:10;;;;;;;11.00;6.22;;;6.00;99.90;;;;;;4977702;28;20047;-39
2023/10/07 06:38:39;;;;;;;;;;;6.00;99.90;;;;;;4975002;28;20030;-38
2023/10/07 06:41:11;;;;;;;9.93;5.10;;;6.00;99.90;;;;;;4981464;28;19916;-39
2023/10/07 06:43:38;;;;;;;9.07;5.38;;;6.00;99.90;;;;;;4987123;28;20558;-39
2023/10/07 06:46:10;;;;;;;7.67;5.53;;;6.00;99.90;;;;;;4983100;28;20403;-40
2023/10/07 06:48:37;;;;;;;9.20;5.70;;;6.10;99.90;;;;;;4983543;28;20277;-41
2023/10/07 06:51:03;;;;;;;10.20;6.70;;;6.20;99.90;;;;;;4982834;28;20042;-41
2023/10/07 06:53:30;;;;;;;13.57;6.15;;;6.20;99.90;;;;;;4985203;28;20030;-39
2023/10/07 06:55:58;;;;;;;9.30;5.95;;;6.40;99.90;;;;;;4985578;28;20049;-37
2023/10/07 06:58:25;;;;;;;10.25;6.63;;;6.50;99.90;;;;;;4982073;28;20033;-40
2023/10/07 07:00:56;;;;;;;12.20;7.70;;;6.60;99.90;;;;;;4984453;28;20121;-40
2023/10/07 07:03:25;;;;;;;11.15;7.78;;;6.70;99.90;;;;;;4987560;28;20081;-38
2023/10/07 07:05:52;;;;;;;12.90;8.40;;;6.80;99.90;;;;;;4980404;28;20035;-41
2023/10/07 07:08:22;;;;;;;20.30;7.63;;;7.10;99.90;;;;;;4987933;28;20034;-40
2023/10/07 07:10:50;;;;;;;18.17;9.23;;;7.30;99.90;;;;;;4983580;28;20508;-29
2023/10/07 07:13:22;;;;;;;15.35;8.73;;;7.60;99.90;;;;;;4982974;28;20406;-30
2023/10/07 07:15:57;;;;;;;16.67;9.27;;;7.90;99.90;;;;;;4989774;28;20034;-30
2023/10/07 07:18:26;;;;;;;18.27;8.45;;;8.00;99.90;;;;;;4989343;28;20030;-32
2023/10/07 07:23:39;;;;;;;17.52;9.63;;;8.50;99.90;;;;;;4984707;28;19910;-30
2023/10/07 07:26:10;;;;;;;16.85;9.35;;;8.50;99.90;;;;;;4980598;28;20105;-31
2023/10/07 07:28:42;;;;;;;17.02;9.35;;;8.80;99.90;;;;;;4990659;28;20041;-30
2023/10/07 07:31:12;;;;;;;19.60;9.18;;;8.90;99.90;;;;;;4990437;28;20038;-38
2023/10/07 07:33:38;;;;;;;18.92;9.77;;;9.00;99.90;;;;;;4991502;28;20045;-40
2023/10/07 07:38:51;;;;;;;19.42;9.70;;;9.20;99.90;;;;;;4973398;28;20125;-38
2023/10/07 07:41:26;;;;;;;15.13;9.63;;;9.40;99.90;;;;;;4976768;28;20470;-36
2023/10/07 07:43:53;;;;;;;17.02;9.27;;;9.60;99.90;;;;;;4983325;28;20045;-39
2023/10/07 07:46:26;;;;;;;20.27;10.20;;;9.70;99.90;;;;;;4985165;28;20030;-37
2023/10/07 07:48:55;;;;;;;20.25;9.93;;;9.90;99.90;;;;;;4988477;28;20133;-41
2023/10/07 07:51:24;;;;;;;18.05;9.93;;;10.10;99.90;;;;;;4987751;28;20022;-37
2023/10/07 07:53:51;;;;;;;16.38;9.15;;;10.20;99.90;;;;;;4987337;28;20396;-41
2023/10/07 07:56:18;;;;;;;15.25;9.35;;;10.30;99.90;;;;;;4979402;28;20056;-35
2023/10/07 07:58:48;;;;;;;22.00;10.07;;;10.50;99.90;;;;;;4973700;28;20035;-38
2023/10/07 08:01:20;;;;;;;12.70;7.53;;;10.80;99.90;;;;;;4975052;28;20412;-37
2023/10/07 08:03:47;;;;;;;12.98;8.57;;;11.00;99.90;;;;;;4978766;28;20338;-41
2023/10/07 08:06:19;;;;;;;12.48;7.95;;;11.20;99.90;;;;;;4979665;28;20034;-41
2023/10/07 08:08:46;;;;;;;14.40;7.32;;;11.40;99.90;;;;;;4977604;28;20500;-39
2023/10/07 08:11:14;;;;;;;15.70;7.65;;;11.60;99.90;;;;;;4978486;28;20057;-40
2023/10/07 08:13:39;;;;;;;11.98;7.00;;;11.80;99.90;;;;;;4980611;28;20034;-33
2023/10/07 08:16:06;;;;;;;14.75;7.45;;;11.90;99.90;;;;;;4983094;28;20040;-38
2023/10/07 08:18:32;;;;;;;15.18;7.75;;;12.10;99.90;;;;;;4982465;28;20027;-38
2023/10/07 08:21:08;;;;;;;11.75;7.57;;;12.30;99.90;;;;;;4975574;28;20253;-34
2023/10/07 08:23:37;;;;;;;10.27;7.07;;;12.40;99.90;;;;;;4979892;28;20035;-32
2023/10/07 08:26:10;;;;;;;9.60;6.05;;;12.50;99.90;;;;;;4976642;28;20497;-32
2023/10/07 08:28:42;;;;;;;10.48;6.47;;;12.70;99.90;;;;;;4984197;28;20042;-33
2023/10/07 08:31:19;;;;;;;11.43;6.55;;;12.80;99.90;;;;;;4973544;28;20034;-35
2023/10/07 08:33:53;;;;;;;12.77;6.63;;;13.00;99.90;;;;;;4980024;28;20506;-32
2023/10/07 08:36:29;;;;;;;13.52;6.72;;;13.30;99.90;;;;;;4979448;28;20057;-35
2023/10/07 08:38:58;;;;;;;9.95;5.63;;;13.40;99.90;;;;;;4985062;28;20377;-34
2023/10/07 08:41:27;;;;;;;9.50;5.53;;;13.50;99.90;;;;;;4986797;28;20030;-41
2023/10/07 08:44:13;;;;;;;10.50;5.53;;;13.70;99.90;;;;;;4984219;28;20062;-41
2023/10/07 08:46:40;;;;;;;7.10;4.97;;;13.90;99.90;;;;;;4980793;28;20026;-35
2023/10/07 08:49:24;;;;;;;8.27;4.70;;;14.10;99.90;;;;;;4996277;28;20034;-40
2023/10/07 08:51:52;;;;;;;7.43;5.25;;;14.40;99.90;;;;;;4986113;28;20034;-41
2023/10/07 08:54:19;;;;;;;11.60;5.72;;;14.70;99.90;;;;;;4986959;28;20030;-38
2023/10/07 08:56:54;;;;;;;9.75;4.50;;;14.80;99.90;;;;;;4981476;28;20614;-39
2023/10/07 08:59:22;;;;;;;8.07;4.63;;;14.90;99.90;;;;;;4987625;28;20046;-40
2023/10/07 09:01:57;;;;;;;10.02;4.68;;;14.90;99.90;;;;;;4985052;28;20120;-40
2023/10/07 09:04:31;;;;;;;9.50;5.20;;;14.90;99.90;;;;;;4977490;28;20464;-40
2023/10/07 09:06:58;;;;;;;8.60;5.28;;;14.90;99.90;;;;;;4978464;28;20070;-38
2023/10/07 09:09:43;;;;;;;9.45;5.07;;;15.10;99.90;;;;;;4977574;28;20185;-36
2023/10/07 09:12:18;;;;;;;9.00;4.90;;;15.30;99.90;;;;;;4975798;28;20040;-37
2023/10/07 09:14:55;;;;;;;7.50;4.25;;;15.50;99.90;;;;;;4980319;28;20448;-37
2023/10/07 09:17:26;;;;;;;12.75;5.10;;;15.60;99.90;;;;;;4972296;28;20031;-39
2023/10/07 09:19:58;;;;;;;8.77;4.57;;;15.70;99.90;;;;;;4979435;28;20504;-39
2023/10/07 09:22:27;;;;;;;6.15;4.00;;;15.80;99.90;;;;;;4971448;28;20034;-36
2023/10/07 09:25:09;;;;;;;8.20;4.57;;;15.90;99.90;;;;;;4983020;28;20431;-39
2023/10/07 09:27:37;;;;;;;7.18;3.92;;;16.00;99.90;;;;;;4982273;28;20542;-40
2023/10/07 09:30:15;;;;;;;6.38;4.25;;;15.90;99.90;;;;;;4985073;28;20030;-37
2023/10/07 09:32:44;;;;;;;7.40;3.72;;;15.80;99.90;;;;;;4976261;28;20049;-34
2023/10/07 09:35:19;;;;;;;6.63;3.75;;;15.90;99.90;;;;;;4981453;28;20033;-39
2023/10/07 09:37:46;;;;;;;6.10;3.88;;;16.10;99.90;;;;;;4983891;28;20112;-39
2023/10/07 09:41:07;;;;;;;6.72;4.10;;;16.20;99.90;;;;;;4997780;28;20097;-38
2023/10/07 09:43:27;;;;;;;5.95;3.80;;;16.10;99.90;;;;;;4981517;28;20034;-38
2023/10/07 09:45:53;;;;;;;6.93;3.63;;;16.10;99.90;;;;;;4988237;28;20026;-39
2023/10/07 09:48:31;;;;;;;4.97;3.67;;;16.00;99.90;;;;;;4982571;28;20038;-38
2023/10/07 09:50:58;;;;;;;7.13;3.03;;;16.10;99.90;;;;;;4981065;28;20039;-41
2023/10/07 09:53:27;;;;;;;9.40;3.13;;;16.20;99.90;;;;;;4980867;28;20129;-40
2023/10/07 09:56:31;;;;;;;5.85;3.08;;;16.20;99.90;;;;;;4981074;28;20045;-35
2023/10/07 09:59:19;;;;;;;5.80;3.10;;;16.30;99.90;;;;;;4979227;28;20054;-42
2023/10/07 10:02:05;;;;;;;5.15;2.72;;;16.40;99.90;;;;;;4981376;28;20038;-39
2023/10/07 10:04:53;;;;;;;6.20;3.42;;;16.40;99.90;;;;;;4973492;28;20035;-38
2023/10/07 10:07:42;;;;;;;5.07;3.50;;;16.40;99.90;;;;;;4977179;28;20080;-35
2023/10/07 10:10:13;;;;;;;6.18;3.22;;;16.60;99.90;;;;;;4979600;28;20041;-40
2023/10/07 10:18:31;;;;;;;6.15;3.10;;;17.00;99.90;;;;;;4979122;28;20397;-38
2023/10/07 10:21:04;;;;;;;3.83;2.55;;;17.20;99.90;;;;;;4980119;28;20030;-40
2023/10/07 10:23:33;;;;;;;3.97;2.78;;;17.30;99.90;;;;;;4980247;28;20053;-39
2023/10/07 10:26:13;;;;;;;3.58;2.65;;;17.40;99.90;;;;;;4975219;28;20141;-40
2023/10/07 10:28:41;;;;;;;6.38;3.78;;;17.30;99.90;;;;;;4965638;28;20014;-36
2023/10/07 10:31:19;;;;;;;6.28;2.83;;;17.40;99.90;;;;;;4981369;28;20066;-36
2023/10/07 10:33:49;;;;;;;4.70;3.13;;;17.40;99.90;;;;;;4989673;28;20165;-38
2023/10/07 10:36:21;;;;;;;9.40;2.55;;;17.50;99.90;;;;;;4986132;28;20041;-38
2023/10/07 10:38:47;;;;;;;5.85;2.88;;;17.40;99.90;;;;;;4988293;28;20031;-37
2023/10/07 10:41:13;;;;;;;4.65;2.72;;;17.40;99.90;;;;;;4985758;28;20494;-31
2023/10/07 10:43:39;;;;;;;6.80;2.80;;;17.50;99.90;;;;;;4988180;28;20032;-36
2023/10/07 10:46:05;;;;;;;5.75;2.72;;;17.60;99.90;;;;;;4993072;28;20489;-30
2023/10/07 10:48:33;;;;;;;3.97;2.30;;;17.70;99.90;;;;;;4980231;28;20027;-32
2023/10/07 10:50:59;;;;;;;4.85;2.30;;;17.90;99.90;;;;;;4979646;28;20582;-30
2023/10/07 10:53:25;;;;;;;4.25;2.50;;;17.90;99.90;;;;;;4982911;28;20042;-31
2023/10/07 10:55:54;;;;;;;5.25;2.50;;;17.90;99.90;;;;;;4981009;28;20104;-31
2023/10/07 10:58:22;;;;;;;6.70;2.75;;;17.90;99.90;;;;;;4988600;28;20049;-33
2023/10/07 11:00:51;;;;;;;3.15;2.25;;;18.00;99.90;;;;;;4981373;28;20037;-33
2023/10/07 11:03:20;;;;;;;6.57;2.70;;;18.10;99.90;;;;;;4983707;28;20034;-33
2023/10/07 11:05:48;;;;;;;5.30;2.67;;;18.20;99.90;;;;;;4983866;28;20041;-31
2023/10/07 11:08:22;;;;;;;5.32;2.65;;;18.40;99.90;;;;;;4976249;28;20508;-32
2023/10/07 11:10:57;;;;;;;3.75;2.42;;;18.40;99.90;;;;;;4978149;28;20499;-34
2023/10/07 11:13:24;;;;;;;3.92;2.33;;;18.40;99.90;;;;;;4978067;28;20037;-33
2023/10/07 11:15:58;;;;;;;4.32;2.00;;;18.30;99.90;;;;;;4983524;28;20025;-32
2023/10/07 11:18:25;;;;;;;3.95;2.42;;;18.30;99.90;;;;;;4979287;28;20014;-31
2023/10/07 11:20:50;;;;;;;3.17;2.40;;;18.20;99.90;;;;;;4975088;28;20062;-33
2023/10/07 11:23:16;;;;;;;3.95;2.80;;;18.10;99.90;;;;;;4977277;28;20057;-31
2023/10/07 11:25:42;;;;;;;6.03;2.60;;;18.20;99.90;;;;;;4976763;28;20034;-33
2023/10/07 11:28:09;;;;;;;5.13;2.40;;;18.40;99.90;;;;;;4981196;28;20037;-35
2023/10/07 11:30:44;;;;;;;4.55;2.30;;;18.30;99.90;;;;;;4979004;28;20069;-34
2023/10/07 11:33:11;;;;;;;4.63;2.50;;;18.20;99.90;;;;;;4981559;28;20484;-33
2023/10/07 11:35:41;;;;;;;5.82;2.25;;;18.20;99.90;;;;;;4977678;28;20065;-32
2023/10/07 11:38:07;;;;;;;4.07;2.28;;;18.20;99.90;;;;;;4977950;28;20117;-34
2023/10/07 11:40:33;;;;;;;5.32;2.13;;;18.20;99.90;;;;;;4979687;28;20129;-33
2023/10/07 11:43:04;;;;;;;5.95;2.17;;;18.10;99.90;;;;;;4977546;28;20030;-32
2023/10/07 11:45:31;;;;;;;2.47;1.95;;;18.20;99.90;;;;;;4982487;28;20060;-32
2023/10/07 11:47:57;;;;;;;4.27;2.47;;;18.30;99.90;;;;;;4979868;28;20035;-32
2023/10/07 11:50:27;;;;;;;5.00;2.42;;;18.40;99.90;;;;;;4975729;28;20052;-32
2023/10/07 11:52:53;;;;;;;4.05;2.45;;;18.30;99.90;;;;;;4982250;28;20034;-30
2023/10/07 11:55:18;;;;;;;3.42;1.95;;;18.30;99.90;;;;;;4979104;28;20377;-29
2023/10/07 11:57:44;;;;;;;4.63;2.00;;;18.30;99.90;;;;;;4979689;28;20513;-30
2023/10/07 12:00:22;;;;;;;4.03;2.10;;;18.30;99.90;;;;;;4986033;28;20522;-31
2023/10/07 12:02:52;;;;;;;4.15;2.53;;;18.40;99.90;;;;;;4982942;28;20104;-29
2023/10/07 12:05:18;;;;;;;5.05;2.50;;;18.50;99.90;;;;;;4978252;28;20036;-33
2023/10/07 12:07:47;;;;;;;4.93;2.40;;;18.40;99.90;;;;;;4983534;28;20495;-30
2023/10/07 12:10:16;;;;;;;3.53;2.03;;;18.40;99.90;;;;;;4981708;28;20046;-31
2023/10/07 12:12:42;;;;;;;5.97;2.30;;;18.30;99.90;;;;;;4984575;28;20038;-39
2023/10/07 12:15:15;;;;;;;4.70;2.33;;;18.20;99.90;;;;;;4984191;28;20551;-39
2023/10/07 12:17:42;;;;;;;8.23;2.75;;;18.20;99.90;;;;;;4986291;28;20480;-37
2023/10/07 12:20:15;;;;;;;4.80;2.50;;;18.20;99.90;;;;;;4986228;28;20023;-39
2023/10/07 12:22:42;;;;;;;3.42;2.30;;;18.20;99.90;;;;;;4984880;28;20742;-34
2023/10/07 12:25:18;;;;;;;3.22;2.00;;;18.20;99.90;;;;;;4983410;28;20058;-41
2023/10/07 12:27:47;;;;;;;4.35;2.38;;;18.30;99.90;;;;;;4984010;28;20076;-40
2023/10/07 12:30:14;;;;;;;3.70;2.38;;;18.30;99.90;;;;;;4984047;28;20121;-40
2023/10/07 12:32:45;;;;;;;3.53;2.30;;;18.40;99.90;;;;;;4980671;28;20129;-37
2023/10/07 12:35:11;;;;;;;3.97;2.00;;;18.40;99.90;;;;;;4986823;28;20379;-40
2023/10/07 12:37:41;;;;;;;4.10;2.20;;;18.50;99.90;;;;;;4984324;28;20097;-40
2023/10/07 12:40:10;;;;;;;3.63;2.47;;;18.40;99.90;;;;;;4982654;28;20039;-37
2023/10/07 12:42:40;;;;;;;5.80;2.78;;;18.50;99.90;;;;;;4985438;28;20431;-33
2023/10/07 12:45:08;;;;;;;6.47;2.83;;;18.50;99.90;;;;;;4986191;28;20030;-35
2023/10/07 12:47:34;;;;;;;3.87;2.53;;;18.60;99.90;;;;;;4983371;28;20034;-40
2023/10/07 12:50:20;;;;;;;5.57;2.50;;;18.70;99.90;;;;;;4985707;28;20488;-39
2023/10/07 12:52:47;;;;;;;6.88;2.58;;;18.70;99.90;;;;;;4977866;28;20672;-40
2023/10/07 12:55:13;;;;;;;6.78;2.58;;;18.70;99.90;;;;;;4980739;28;20611;-40
2023/10/07 12:57:41;;;;;;;2.95;2.33;;;18.90;99.90;;;;;;4979496;28;20037;-40
2023/10/07 13:00:28;;;;;;;3.75;2.40;;;19.00;99.90;;;;;;4981878;28;20045;-37
2023/10/07 13:02:54;;;;;;;5.50;2.22;;;18.90;99.90;;;;;;4975406;28;20045;-32
2023/10/07 13:05:23;;;;;;;4.07;2.28;;;18.90;99.90;;;;;;4979713;28;20034;-32
2023/10/07 13:07:56;;;;;;;4.72;2.28;;;18.90;99.90;;;;;;4984448;28;20106;-33
2023/10/07 13:10:22;;;;;;;3.38;2.15;;;19.00;99.90;;;;;;4983508;28;20583;-33
2023/10/07 13:12:49;;;;;;;5.20;2.35;;;19.00;99.90;;;;;;4984788;28;20035;-32
2023/10/07 13:15:17;;;;;;;3.75;2.20;;;19.00;99.90;;;;;;4982455;28;20026;-32
2023/10/07 13:17:47;;;;;;;;;;;19.00;99.90;;;;;;4980633;28;20035;-31
2023/10/07 13:20:13;;;;;;;4.10;2.03;;;19.10;99.90;;;;;;4988945;28;19933;-33
2023/10/07 13:22:39;;;;;;;5.32;2.13;;;19.10;99.90;;;;;;4981625;28;20484;-32
2023/10/07 13:25:09;;;;;;;3.75;2.22;;;19.20;99.90;;;;;;4985403;28;20089;-39
2023/10/07 13:27:39;;;;;;;4.75;2.20;;;19.20;99.90;;;;;;4981322;28;20031;-40
2023/10/07 13:30:08;;;;;;;4.78;2.47;;;19.20;99.90;;;;;;4986024;28;20055;-40
2023/10/07 13:32:34;;;;;;;4.53;2.35;;;19.10;99.90;;;;;;4985364;28;20042;-38
2023/10/07 13:35:00;;;;;;;4.78;2.30;;;19.00;99.90;;;;;;4985975;28;20054;-40
2023/10/07 13:37:26;;;;;;;4.40;2.40;;;19.00;99.90;;;;;;4984689;28;20464;-36